sensor_id;sensor_type;location;lat;lon;timestamp;P1;durP1;ratioP1;P2;durP2;ratioP2
59770;SDS011;45649;53.014;6.600;2023-02-04T00:00:59;26.70;;;5.43;;
59770;SDS011;45649;53.014;6.600;2023-02-04T00:03:25;36.07;;;6.30;;
59770;SDS011;45649;53.014;6.600;2023-02-04T00:05:51;36.40;;;6.50;;
59770;SDS011;45649;53.014;6.600;2023-02-04T00:08:17;35.33;;;6.20;;
59770;SDS011;45649;53.014;6.600;2023-02-04T00:10:43;31.80;;;6.13;;
59770;SDS011;45649;53.014;6.600;2023-02-04T00:13:10;36.03;;;6.57;;
59770;SDS011;45649;53.014;6.600;2023-02-04T00:15:36;36.03;;;6.73;;
59770;SDS011;45649;53.014;6.600;2023-02-04T00:18:03;31.20;;;6.13;;
59770;SDS011;45649;53.014;6.600;2023-02-04T00:20:31;34.13;;;6.50;;
59770;SDS011;45649;53.014;6.600;2023-02-04T00:22:57;27.63;;;5.97;;
59770;SDS011;45649;53.014;6.600;2023-02-04T00:25:23;32.10;;;6.13;;
59770;SDS011;45649;53.014;6.600;2023-02-04T00:27:49;28.47;;;6.03;;
59770;SDS011;45649;53.014;6.600;2023-02-04T00:30:15;31.17;;;6.17;;
59770;SDS011;45649;53.014;6.600;2023-02-04T00:32:41;33.80;;;6.37;;
59770;SDS011;45649;53.014;6.600;2023-02-04T00:35:07;28.87;;;5.30;;
59770;SDS011;45649;53.014;6.600;2023-02-04T00:37:34;31.57;;;6.13;;
59770;SDS011;45649;53.014;6.600;2023-02-04T00:40:02;33.03;;;5.87;;
59770;SDS011;45649;53.014;6.600;2023-02-04T00:42:28;28.33;;;5.73;;
59770;SDS011;45649;53.014;6.600;2023-02-04T00:44:54;27.97;;;5.87;;
59770;SDS011;45649;53.014;6.600;2023-02-04T00:47:20;30.50;;;6.30;;
59770;SDS011;45649;53.014;6.600;2023-02-04T00:49:47;29.00;;;6.10;;
59770;SDS011;45649;53.014;6.600;2023-02-04T00:52:13;27.17;;;5.27;;
59770;SDS011;45649;53.014;6.600;2023-02-04T00:54:39;31.97;;;5.80;;
59770;SDS011;45649;53.014;6.600;2023-02-04T00:57:05;26.63;;;5.40;;
59770;SDS011;45649;53.014;6.600;2023-02-04T00:59:31;31.17;;;6.67;;
59770;SDS011;45649;53.014;6.600;2023-02-04T01:01:57;30.50;;;6.10;;
59770;SDS011;45649;53.014;6.600;2023-02-04T01:04:24;32.80;;;6.43;;
59770;SDS011;45649;53.014;6.600;2023-02-04T01:06:52;32.43;;;5.67;;
59770;SDS011;45649;53.014;6.600;2023-02-04T01:09:18;32.40;;;5.67;;
59770;SDS011;45649;53.014;6.600;2023-02-04T01:11:44;27.53;;;5.83;;
59770;SDS011;45649;53.014;6.600;2023-02-04T01:14:11;32.97;;;6.13;;
59770;SDS011;45649;53.014;6.600;2023-02-04T01:16:37;24.23;;;5.63;;
59770;SDS011;45649;53.014;6.600;2023-02-04T01:19:03;29.13;;;6.30;;
59770;SDS011;45649;53.014;6.600;2023-02-04T01:21:29;35.40;;;6.63;;
59770;SDS011;45649;53.014;6.600;2023-02-04T01:23:55;31.40;;;5.90;;
59770;SDS011;45649;53.014;6.600;2023-02-04T01:26:21;37.40;;;6.37;;
59770;SDS011;45649;53.014;6.600;2023-02-04T01:28:47;33.80;;;6.50;;
59770;SDS011;45649;53.014;6.600;2023-02-04T01:31:13;31.17;;;5.93;;
59770;SDS011;45649;53.014;6.600;2023-02-04T01:33:40;32.87;;;6.23;;
59770;SDS011;45649;53.014;6.600;2023-02-04T01:36:06;38.83;;;6.00;;
59770;SDS011;45649;53.014;6.600;2023-02-04T01:38:32;31.00;;;6.07;;
59770;SDS011;45649;53.014;6.600;2023-02-04T01:40:58;29.27;;;5.67;;
59770;SDS011;45649;53.014;6.600;2023-02-04T01:43:25;29.77;;;6.60;;
59770;SDS011;45649;53.014;6.600;2023-02-04T01:45:51;31.03;;;5.97;;
59770;SDS011;45649;53.014;6.600;2023-02-04T01:48:18;34.33;;;6.30;;
59770;SDS011;45649;53.014;6.600;2023-02-04T01:50:56;32.00;;;6.43;;
59770;SDS011;45649;53.014;6.600;2023-02-04T01:53:24;34.77;;;5.60;;
59770;SDS011;45649;53.014;6.600;2023-02-04T01:55:51;37.57;;;6.53;;
59770;SDS011;45649;53.014;6.600;2023-02-04T01:58:17;27.37;;;5.87;;
59770;SDS011;45649;53.014;6.600;2023-02-04T02:00:44;29.20;;;5.70;;
59770;SDS011;45649;53.014;6.600;2023-02-04T02:03:10;32.37;;;5.97;;
59770;SDS011;45649;53.014;6.600;2023-02-04T02:05:43;33.13;;;5.53;;
59770;SDS011;45649;53.014;6.600;2023-02-04T02:08:10;27.67;;;6.33;;
59770;SDS011;45649;53.014;6.600;2023-02-04T02:10:37;31.13;;;5.83;;
59770;SDS011;45649;53.014;6.600;2023-02-04T02:13:04;35.00;;;5.67;;
59770;SDS011;45649;53.014;6.600;2023-02-04T02:15:31;33.90;;;6.43;;
59770;SDS011;45649;53.014;6.600;2023-02-04T02:17:57;38.27;;;6.30;;
59770;SDS011;45649;53.014;6.600;2023-02-04T02:20:23;34.00;;;6.20;;
59770;SDS011;45649;53.014;6.600;2023-02-04T02:25:35;27.47;;;6.00;;
59770;SDS011;45649;53.014;6.600;2023-02-04T02:28:01;37.13;;;5.83;;
59770;SDS011;45649;53.014;6.600;2023-02-04T02:30:29;32.43;;;6.23;;
59770;SDS011;45649;53.014;6.600;2023-02-04T02:32:55;34.57;;;6.23;;
59770;SDS011;45649;53.014;6.600;2023-02-04T02:35:22;35.73;;;6.90;;
59770;SDS011;45649;53.014;6.600;2023-02-04T02:37:48;35.13;;;6.17;;
59770;SDS011;45649;53.014;6.600;2023-02-04T02:40:14;35.13;;;5.90;;
59770;SDS011;45649;53.014;6.600;2023-02-04T02:42:41;33.37;;;6.67;;
59770;SDS011;45649;53.014;6.600;2023-02-04T02:45:12;40.90;;;6.50;;
59770;SDS011;45649;53.014;6.600;2023-02-04T02:47:41;35.43;;;7.03;;
59770;SDS011;45649;53.014;6.600;2023-02-04T02:50:07;34.17;;;6.30;;
59770;SDS011;45649;53.014;6.600;2023-02-04T02:52:36;38.77;;;7.07;;
59770;SDS011;45649;53.014;6.600;2023-02-04T02:55:02;36.93;;;6.23;;
59770;SDS011;45649;53.014;6.600;2023-02-04T02:57:28;40.17;;;6.07;;
59770;SDS011;45649;53.014;6.600;2023-02-04T02:59:54;37.77;;;6.30;;
59770;SDS011;45649;53.014;6.600;2023-02-04T03:04:56;33.77;;;5.83;;
59770;SDS011;45649;53.014;6.600;2023-02-04T03:07:25;33.17;;;5.87;;
59770;SDS011;45649;53.014;6.600;2023-02-04T03:09:51;37.73;;;6.80;;
59770;SDS011;45649;53.014;6.600;2023-02-04T03:12:18;47.43;;;7.43;;
59770;SDS011;45649;53.014;6.600;2023-02-04T03:14:44;40.90;;;6.67;;
59770;SDS011;45649;53.014;6.600;2023-02-04T03:17:10;43.17;;;6.57;;
59770;SDS011;45649;53.014;6.600;2023-02-04T03:19:37;40.03;;;6.87;;
59770;SDS011;45649;53.014;6.600;2023-02-04T03:22:03;42.90;;;6.73;;
59770;SDS011;45649;53.014;6.600;2023-02-04T03:24:30;41.67;;;6.30;;
59770;SDS011;45649;53.014;6.600;2023-02-04T03:26:56;44.30;;;7.03;;
59770;SDS011;45649;53.014;6.600;2023-02-04T03:29:22;38.87;;;7.03;;
59770;SDS011;45649;53.014;6.600;2023-02-04T03:31:48;38.27;;;7.17;;
59770;SDS011;45649;53.014;6.600;2023-02-04T03:34:14;31.90;;;6.53;;
59770;SDS011;45649;53.014;6.600;2023-02-04T03:36:41;47.00;;;7.43;;
59770;SDS011;45649;53.014;6.600;2023-02-04T03:39:07;41.27;;;6.77;;
59770;SDS011;45649;53.014;6.600;2023-02-04T03:41:33;34.80;;;6.53;;
59770;SDS011;45649;53.014;6.600;2023-02-04T03:43:59;38.63;;;6.53;;
59770;SDS011;45649;53.014;6.600;2023-02-04T03:46:25;37.10;;;6.80;;
59770;SDS011;45649;53.014;6.600;2023-02-04T03:48:52;37.73;;;6.80;;
59770;SDS011;45649;53.014;6.600;2023-02-04T03:51:18;40.00;;;6.60;;
59770;SDS011;45649;53.014;6.600;2023-02-04T03:53:44;38.73;;;7.30;;
59770;SDS011;45649;53.014;6.600;2023-02-04T03:56:10;40.90;;;6.53;;
59770;SDS011;45649;53.014;6.600;2023-02-04T03:58:37;33.67;;;7.20;;
59770;SDS011;45649;53.014;6.600;2023-02-04T04:01:03;37.63;;;6.57;;
59770;SDS011;45649;53.014;6.600;2023-02-04T04:03:29;37.53;;;7.03;;
59770;SDS011;45649;53.014;6.600;2023-02-04T04:05:55;38.47;;;6.53;;
59770;SDS011;45649;53.014;6.600;2023-02-04T04:08:21;36.13;;;6.60;;
59770;SDS011;45649;53.014;6.600;2023-02-04T04:10:47;40.50;;;7.10;;
59770;SDS011;45649;53.014;6.600;2023-02-04T04:13:13;37.50;;;7.33;;
59770;SDS011;45649;53.014;6.600;2023-02-04T04:15:39;37.57;;;6.93;;
59770;SDS011;45649;53.014;6.600;2023-02-04T04:18:05;47.27;;;7.57;;
59770;SDS011;45649;53.014;6.600;2023-02-04T04:20:31;38.37;;;6.70;;
59770;SDS011;45649;53.014;6.600;2023-02-04T04:22:57;40.50;;;7.43;;
59770;SDS011;45649;53.014;6.600;2023-02-04T04:25:24;36.60;;;6.23;;
59770;SDS011;45649;53.014;6.600;2023-02-04T04:27:50;36.80;;;6.60;;
59770;SDS011;45649;53.014;6.600;2023-02-04T04:30:16;44.87;;;7.43;;
59770;SDS011;45649;53.014;6.600;2023-02-04T04:32:42;37.10;;;6.90;;
59770;SDS011;45649;53.014;6.600;2023-02-04T04:35:08;32.67;;;6.37;;
59770;SDS011;45649;53.014;6.600;2023-02-04T04:37:34;34.83;;;6.20;;
59770;SDS011;45649;53.014;6.600;2023-02-04T04:40:00;41.07;;;7.00;;
59770;SDS011;45649;53.014;6.600;2023-02-04T04:42:26;38.03;;;6.83;;
59770;SDS011;45649;53.014;6.600;2023-02-04T04:44:53;37.53;;;6.57;;
59770;SDS011;45649;53.014;6.600;2023-02-04T04:47:19;30.97;;;5.87;;
59770;SDS011;45649;53.014;6.600;2023-02-04T04:49:45;34.93;;;6.50;;
59770;SDS011;45649;53.014;6.600;2023-02-04T04:52:11;31.53;;;5.73;;
59770;SDS011;45649;53.014;6.600;2023-02-04T04:54:37;32.77;;;5.43;;
59770;SDS011;45649;53.014;6.600;2023-02-04T04:57:03;36.70;;;6.40;;
59770;SDS011;45649;53.014;6.600;2023-02-04T04:59:29;37.20;;;6.20;;
59770;SDS011;45649;53.014;6.600;2023-02-04T05:01:56;37.17;;;5.70;;
59770;SDS011;45649;53.014;6.600;2023-02-04T05:04:22;39.80;;;6.40;;
59770;SDS011;45649;53.014;6.600;2023-02-04T05:06:48;27.37;;;5.80;;
59770;SDS011;45649;53.014;6.600;2023-02-04T05:09:14;29.63;;;5.93;;
59770;SDS011;45649;53.014;6.600;2023-02-04T05:11:41;37.70;;;6.37;;
59770;SDS011;45649;53.014;6.600;2023-02-04T05:14:07;36.37;;;6.33;;
59770;SDS011;45649;53.014;6.600;2023-02-04T05:16:33;34.57;;;6.60;;
59770;SDS011;45649;53.014;6.600;2023-02-04T05:18:59;35.20;;;6.27;;
59770;SDS011;45649;53.014;6.600;2023-02-04T05:21:25;32.37;;;6.27;;
59770;SDS011;45649;53.014;6.600;2023-02-04T05:23:52;33.90;;;6.10;;
59770;SDS011;45649;53.014;6.600;2023-02-04T05:26:18;35.77;;;6.13;;
59770;SDS011;45649;53.014;6.600;2023-02-04T05:28:44;31.67;;;6.17;;
59770;SDS011;45649;53.014;6.600;2023-02-04T05:31:10;29.70;;;5.60;;
59770;SDS011;45649;53.014;6.600;2023-02-04T05:33:36;36.13;;;6.20;;
59770;SDS011;45649;53.014;6.600;2023-02-04T05:36:02;32.80;;;6.30;;
59770;SDS011;45649;53.014;6.600;2023-02-04T05:38:28;27.23;;;5.23;;
59770;SDS011;45649;53.014;6.600;2023-02-04T05:40:54;32.17;;;6.23;;
59770;SDS011;45649;53.014;6.600;2023-02-04T05:43:21;31.23;;;5.90;;
59770;SDS011;45649;53.014;6.600;2023-02-04T05:45:47;38.67;;;6.40;;
59770;SDS011;45649;53.014;6.600;2023-02-04T05:48:13;29.97;;;5.70;;
59770;SDS011;45649;53.014;6.600;2023-02-04T05:50:39;33.37;;;6.20;;
59770;SDS011;45649;53.014;6.600;2023-02-04T05:53:05;34.17;;;6.57;;
59770;SDS011;45649;53.014;6.600;2023-02-04T05:55:31;36.93;;;6.03;;
59770;SDS011;45649;53.014;6.600;2023-02-04T05:57:57;30.47;;;5.30;;
59770;SDS011;45649;53.014;6.600;2023-02-04T06:00:23;27.67;;;6.20;;
59770;SDS011;45649;53.014;6.600;2023-02-04T06:02:49;32.33;;;6.00;;
59770;SDS011;45649;53.014;6.600;2023-02-04T06:05:15;31.57;;;5.50;;
59770;SDS011;45649;53.014;6.600;2023-02-04T06:07:42;24.97;;;5.27;;
59770;SDS011;45649;53.014;6.600;2023-02-04T06:10:08;26.43;;;5.13;;
59770;SDS011;45649;53.014;6.600;2023-02-04T06:12:34;23.77;;;4.67;;
59770;SDS011;45649;53.014;6.600;2023-02-04T06:15:00;26.33;;;5.40;;
59770;SDS011;45649;53.014;6.600;2023-02-04T06:17:27;25.00;;;4.50;;
59770;SDS011;45649;53.014;6.600;2023-02-04T06:19:53;27.17;;;4.70;;
59770;SDS011;45649;53.014;6.600;2023-02-04T06:22:19;28.20;;;5.17;;
59770;SDS011;45649;53.014;6.600;2023-02-04T06:24:48;34.33;;;6.20;;
59770;SDS011;45649;53.014;6.600;2023-02-04T06:27:14;25.80;;;4.97;;
59770;SDS011;45649;53.014;6.600;2023-02-04T06:29:47;18.60;;;4.67;;
59770;SDS011;45649;53.014;6.600;2023-02-04T06:32:13;25.17;;;4.73;;
59770;SDS011;45649;53.014;6.600;2023-02-04T06:34:40;24.33;;;5.20;;
59770;SDS011;45649;53.014;6.600;2023-02-04T06:37:06;19.23;;;4.33;;
59770;SDS011;45649;53.014;6.600;2023-02-04T06:39:32;23.80;;;4.40;;
59770;SDS011;45649;53.014;6.600;2023-02-04T06:41:58;21.03;;;4.53;;
59770;SDS011;45649;53.014;6.600;2023-02-04T06:44:24;20.10;;;3.87;;
59770;SDS011;45649;53.014;6.600;2023-02-04T06:46:50;21.33;;;3.70;;
59770;SDS011;45649;53.014;6.600;2023-02-04T06:49:16;20.50;;;3.60;;
59770;SDS011;45649;53.014;6.600;2023-02-04T06:51:42;15.73;;;3.47;;
59770;SDS011;45649;53.014;6.600;2023-02-04T06:54:08;15.87;;;3.07;;
59770;SDS011;45649;53.014;6.600;2023-02-04T06:56:34;10.87;;;2.70;;
59770;SDS011;45649;53.014;6.600;2023-02-04T06:59:01;18.83;;;3.40;;
59770;SDS011;45649;53.014;6.600;2023-02-04T07:01:27;16.97;;;3.07;;
59770;SDS011;45649;53.014;6.600;2023-02-04T07:03:53;16.43;;;3.60;;
59770;SDS011;45649;53.014;6.600;2023-02-04T07:06:19;15.63;;;3.17;;
59770;SDS011;45649;53.014;6.600;2023-02-04T07:08:45;14.07;;;3.50;;
59770;SDS011;45649;53.014;6.600;2023-02-04T07:11:13;13.33;;;2.90;;
59770;SDS011;45649;53.014;6.600;2023-02-04T07:13:39;17.43;;;3.33;;
59770;SDS011;45649;53.014;6.600;2023-02-04T07:16:06;11.30;;;3.10;;
59770;SDS011;45649;53.014;6.600;2023-02-04T07:18:32;12.87;;;3.60;;
59770;SDS011;45649;53.014;6.600;2023-02-04T07:20:58;14.53;;;3.63;;
59770;SDS011;45649;53.014;6.600;2023-02-04T07:23:24;12.03;;;2.97;;
59770;SDS011;45649;53.014;6.600;2023-02-04T07:25:52;9.80;;;2.93;;
59770;SDS011;45649;53.014;6.600;2023-02-04T07:28:20;11.07;;;2.67;;
59770;SDS011;45649;53.014;6.600;2023-02-04T07:30:46;14.03;;;3.20;;
59770;SDS011;45649;53.014;6.600;2023-02-04T07:33:12;8.87;;;2.70;;
59770;SDS011;45649;53.014;6.600;2023-02-04T07:35:38;11.37;;;2.80;;
59770;SDS011;45649;53.014;6.600;2023-02-04T07:38:04;15.63;;;3.27;;
59770;SDS011;45649;53.014;6.600;2023-02-04T07:40:30;14.43;;;3.43;;
59770;SDS011;45649;53.014;6.600;2023-02-04T07:42:56;10.10;;;2.97;;
59770;SDS011;45649;53.014;6.600;2023-02-04T07:45:22;11.23;;;3.83;;
59770;SDS011;45649;53.014;6.600;2023-02-04T07:47:48;9.30;;;2.93;;
59770;SDS011;45649;53.014;6.600;2023-02-04T07:50:15;11.40;;;2.90;;
59770;SDS011;45649;53.014;6.600;2023-02-04T07:52:41;8.40;;;2.30;;
59770;SDS011;45649;53.014;6.600;2023-02-04T07:55:07;13.13;;;3.07;;
59770;SDS011;45649;53.014;6.600;2023-02-04T07:57:33;14.77;;;3.13;;
59770;SDS011;45649;53.014;6.600;2023-02-04T07:59:59;10.40;;;2.73;;
59770;SDS011;45649;53.014;6.600;2023-02-04T08:02:25;14.20;;;3.47;;
59770;SDS011;45649;53.014;6.600;2023-02-04T08:04:52;11.60;;;2.67;;
59770;SDS011;45649;53.014;6.600;2023-02-04T08:07:18;13.07;;;2.93;;
59770;SDS011;45649;53.014;6.600;2023-02-04T08:09:44;13.57;;;3.00;;
59770;SDS011;45649;53.014;6.600;2023-02-04T08:12:11;12.77;;;3.20;;
59770;SDS011;45649;53.014;6.600;2023-02-04T08:14:37;11.37;;;2.80;;
59770;SDS011;45649;53.014;6.600;2023-02-04T08:17:03;9.67;;;2.53;;
59770;SDS011;45649;53.014;6.600;2023-02-04T08:19:29;12.73;;;3.10;;
59770;SDS011;45649;53.014;6.600;2023-02-04T08:21:55;10.17;;;2.80;;
59770;SDS011;45649;53.014;6.600;2023-02-04T08:24:21;14.57;;;2.60;;
59770;SDS011;45649;53.014;6.600;2023-02-04T08:26:47;14.10;;;3.10;;
59770;SDS011;45649;53.014;6.600;2023-02-04T08:29:13;12.27;;;2.63;;
59770;SDS011;45649;53.014;6.600;2023-02-04T08:31:39;13.63;;;2.73;;
59770;SDS011;45649;53.014;6.600;2023-02-04T08:34:05;10.93;;;2.80;;
59770;SDS011;45649;53.014;6.600;2023-02-04T08:36:32;11.83;;;2.90;;
59770;SDS011;45649;53.014;6.600;2023-02-04T08:38:58;10.97;;;2.97;;
59770;SDS011;45649;53.014;6.600;2023-02-04T08:41:24;10.83;;;2.67;;
59770;SDS011;45649;53.014;6.600;2023-02-04T08:43:50;14.10;;;2.87;;
59770;SDS011;45649;53.014;6.600;2023-02-04T08:46:16;11.90;;;2.70;;
59770;SDS011;45649;53.014;6.600;2023-02-04T08:48:42;11.87;;;3.17;;
59770;SDS011;45649;53.014;6.600;2023-02-04T08:51:08;13.40;;;2.73;;
59770;SDS011;45649;53.014;6.600;2023-02-04T08:53:35;11.80;;;3.23;;
59770;SDS011;45649;53.014;6.600;2023-02-04T08:56:05;11.07;;;2.90;;
59770;SDS011;45649;53.014;6.600;2023-02-04T08:58:31;9.53;;;2.70;;
59770;SDS011;45649;53.014;6.600;2023-02-04T09:00:57;7.50;;;3.03;;
59770;SDS011;45649;53.014;6.600;2023-02-04T09:03:23;8.97;;;2.83;;
59770;SDS011;45649;53.014;6.600;2023-02-04T09:05:49;10.90;;;2.80;;
59770;SDS011;45649;53.014;6.600;2023-02-04T09:08:16;13.77;;;2.80;;
59770;SDS011;45649;53.014;6.600;2023-02-04T09:10:42;11.33;;;2.70;;
59770;SDS011;45649;53.014;6.600;2023-02-04T09:13:08;11.33;;;2.50;;
59770;SDS011;45649;53.014;6.600;2023-02-04T09:15:36;13.83;;;2.73;;
59770;SDS011;45649;53.014;6.600;2023-02-04T09:18:02;12.83;;;2.70;;
59770;SDS011;45649;53.014;6.600;2023-02-04T09:20:36;9.10;;;2.67;;
59770;SDS011;45649;53.014;6.600;2023-02-04T09:23:03;12.70;;;2.63;;
59770;SDS011;45649;53.014;6.600;2023-02-04T09:25:33;8.33;;;2.23;;
59770;SDS011;45649;53.014;6.600;2023-02-04T09:27:59;15.03;;;2.67;;
59770;SDS011;45649;53.014;6.600;2023-02-04T09:30:27;8.17;;;2.57;;
59770;SDS011;45649;53.014;6.600;2023-02-04T09:32:53;11.73;;;2.70;;
59770;SDS011;45649;53.014;6.600;2023-02-04T09:35:19;11.10;;;2.50;;
59770;SDS011;45649;53.014;6.600;2023-02-04T09:37:45;9.13;;;2.30;;
59770;SDS011;45649;53.014;6.600;2023-02-04T09:40:12;13.33;;;2.60;;
59770;SDS011;45649;53.014;6.600;2023-02-04T09:42:41;13.00;;;2.50;;
59770;SDS011;45649;53.014;6.600;2023-02-04T09:45:08;10.20;;;2.60;;
59770;SDS011;45649;53.014;6.600;2023-02-04T09:47:35;6.33;;;2.17;;
59770;SDS011;45649;53.014;6.600;2023-02-04T09:50:01;7.60;;;2.47;;
59770;SDS011;45649;53.014;6.600;2023-02-04T09:52:27;5.83;;;2.07;;
59770;SDS011;45649;53.014;6.600;2023-02-04T09:54:53;10.00;;;2.50;;
59770;SDS011;45649;53.014;6.600;2023-02-04T09:57:19;10.93;;;2.60;;
59770;SDS011;45649;53.014;6.600;2023-02-04T09:59:45;8.60;;;2.90;;
59770;SDS011;45649;53.014;6.600;2023-02-04T10:02:22;13.50;;;2.97;;
59770;SDS011;45649;53.014;6.600;2023-02-04T10:04:49;11.37;;;2.97;;
59770;SDS011;45649;53.014;6.600;2023-02-04T10:07:16;10.53;;;2.40;;
59770;SDS011;45649;53.014;6.600;2023-02-04T10:09:46;10.10;;;2.40;;
59770;SDS011;45649;53.014;6.600;2023-02-04T10:12:13;10.80;;;2.13;;
59770;SDS011;45649;53.014;6.600;2023-02-04T10:14:39;8.37;;;2.10;;
59770;SDS011;45649;53.014;6.600;2023-02-04T10:17:06;10.63;;;2.53;;
59770;SDS011;45649;53.014;6.600;2023-02-04T10:19:33;9.40;;;2.67;;
59770;SDS011;45649;53.014;6.600;2023-02-04T10:21:59;10.30;;;2.30;;
59770;SDS011;45649;53.014;6.600;2023-02-04T10:24:25;6.30;;;2.20;;
59770;SDS011;45649;53.014;6.600;2023-02-04T10:27:05;10.20;;;2.23;;
59770;SDS011;45649;53.014;6.600;2023-02-04T10:29:31;10.60;;;2.70;;
59770;SDS011;45649;53.014;6.600;2023-02-04T10:31:57;7.70;;;2.20;;
59770;SDS011;45649;53.014;6.600;2023-02-04T10:34:31;8.23;;;2.20;;
59770;SDS011;45649;53.014;6.600;2023-02-04T10:36:58;8.30;;;2.23;;
59770;SDS011;45649;53.014;6.600;2023-02-04T10:39:28;9.27;;;2.37;;
59770;SDS011;45649;53.014;6.600;2023-02-04T10:41:56;5.57;;;1.93;;
59770;SDS011;45649;53.014;6.600;2023-02-04T10:47:02;10.73;;;2.20;;
59770;SDS011;45649;53.014;6.600;2023-02-04T10:49:29;6.70;;;1.90;;
59770;SDS011;45649;53.014;6.600;2023-02-04T10:51:55;9.97;;;2.00;;
59770;SDS011;45649;53.014;6.600;2023-02-04T10:54:23;6.33;;;1.90;;
59770;SDS011;45649;53.014;6.600;2023-02-04T10:59:41;7.20;;;1.90;;
59770;SDS011;45649;53.014;6.600;2023-02-04T11:02:20;5.40;;;1.73;;
59770;SDS011;45649;53.014;6.600;2023-02-04T11:04:51;5.93;;;2.00;;
59770;SDS011;45649;53.014;6.600;2023-02-04T11:07:18;6.77;;;2.37;;
59770;SDS011;45649;53.014;6.600;2023-02-04T11:09:44;7.77;;;2.30;;
59770;SDS011;45649;53.014;6.600;2023-02-04T11:14:55;5.90;;;2.00;;
59770;SDS011;45649;53.014;6.600;2023-02-04T11:17:27;8.50;;;2.70;;
59770;SDS011;45649;53.014;6.600;2023-02-04T11:19:55;8.47;;;2.13;;
59770;SDS011;45649;53.014;6.600;2023-02-04T11:22:22;5.47;;;1.97;;
59770;SDS011;45649;53.014;6.600;2023-02-04T11:24:49;5.67;;;1.73;;
59770;SDS011;45649;53.014;6.600;2023-02-04T11:27:20;4.00;;;1.63;;
59770;SDS011;45649;53.014;6.600;2023-02-04T11:29:47;3.90;;;1.90;;
59770;SDS011;45649;53.014;6.600;2023-02-04T11:34:54;4.93;;;2.00;;
59770;SDS011;45649;53.014;6.600;2023-02-04T11:37:35;5.60;;;2.00;;
59770;SDS011;45649;53.014;6.600;2023-02-04T11:40:08;5.60;;;1.93;;
59770;SDS011;45649;53.014;6.600;2023-02-04T11:42:39;5.30;;;1.83;;
59770;SDS011;45649;53.014;6.600;2023-02-04T11:45:13;6.67;;;1.67;;
59770;SDS011;45649;53.014;6.600;2023-02-04T11:47:39;5.20;;;1.70;;
59770;SDS011;45649;53.014;6.600;2023-02-04T11:50:16;6.10;;;1.73;;
59770;SDS011;45649;53.014;6.600;2023-02-04T11:52:44;5.23;;;1.70;;
59770;SDS011;45649;53.014;6.600;2023-02-04T11:55:10;4.70;;;2.03;;
59770;SDS011;45649;53.014;6.600;2023-02-04T11:57:38;3.07;;;1.60;;
59770;SDS011;45649;53.014;6.600;2023-02-04T12:00:05;5.37;;;1.97;;
59770;SDS011;45649;53.014;6.600;2023-02-04T12:02:39;5.23;;;1.80;;
59770;SDS011;45649;53.014;6.600;2023-02-04T12:05:13;6.47;;;1.67;;
59770;SDS011;45649;53.014;6.600;2023-02-04T12:07:39;3.57;;;1.40;;
59770;SDS011;45649;53.014;6.600;2023-02-04T12:12:48;5.00;;;1.67;;
59770;SDS011;45649;53.014;6.600;2023-02-04T12:15:30;5.10;;;1.60;;
59770;SDS011;45649;53.014;6.600;2023-02-04T12:18:00;1.83;;;1.00;;
59770;SDS011;45649;53.014;6.600;2023-02-04T12:20:26;2.20;;;1.20;;
59770;SDS011;45649;53.014;6.600;2023-02-04T12:22:53;3.03;;;1.50;;
59770;SDS011;45649;53.014;6.600;2023-02-04T12:25:19;3.37;;;1.40;;
59770;SDS011;45649;53.014;6.600;2023-02-04T12:27:45;5.03;;;1.80;;
59770;SDS011;45649;53.014;6.600;2023-02-04T12:30:11;3.07;;;1.47;;
59770;SDS011;45649;53.014;6.600;2023-02-04T12:32:37;5.17;;;1.60;;
59770;SDS011;45649;53.014;6.600;2023-02-04T12:35:03;3.90;;;1.63;;
59770;SDS011;45649;53.014;6.600;2023-02-04T12:37:30;2.93;;;1.37;;
59770;SDS011;45649;53.014;6.600;2023-02-04T12:39:56;2.27;;;1.47;;
59770;SDS011;45649;53.014;6.600;2023-02-04T12:42:22;3.93;;;1.60;;
59770;SDS011;45649;53.014;6.600;2023-02-04T12:44:48;4.80;;;1.43;;
59770;SDS011;45649;53.014;6.600;2023-02-04T12:47:14;2.93;;;1.50;;
59770;SDS011;45649;53.014;6.600;2023-02-04T12:49:40;3.87;;;1.50;;
59770;SDS011;45649;53.014;6.600;2023-02-04T12:52:07;3.17;;;1.27;;
59770;SDS011;45649;53.014;6.600;2023-02-04T12:54:34;7.73;;;2.07;;
59770;SDS011;45649;53.014;6.600;2023-02-04T12:57:00;3.23;;;1.40;;
59770;SDS011;45649;53.014;6.600;2023-02-04T12:59:26;4.30;;;1.57;;
59770;SDS011;45649;53.014;6.600;2023-02-04T13:01:55;3.33;;;1.60;;
59770;SDS011;45649;53.014;6.600;2023-02-04T13:04:21;2.77;;;1.40;;
59770;SDS011;45649;53.014;6.600;2023-02-04T13:06:47;2.73;;;1.40;;
59770;SDS011;45649;53.014;6.600;2023-02-04T13:09:13;2.53;;;1.33;;
59770;SDS011;45649;53.014;6.600;2023-02-04T13:11:39;3.70;;;1.70;;
59770;SDS011;45649;53.014;6.600;2023-02-04T13:14:05;3.87;;;1.70;;
59770;SDS011;45649;53.014;6.600;2023-02-04T13:16:31;5.67;;;1.60;;
59770;SDS011;45649;53.014;6.600;2023-02-04T13:18:58;2.97;;;1.60;;
59770;SDS011;45649;53.014;6.600;2023-02-04T13:21:24;4.93;;;1.80;;
59770;SDS011;45649;53.014;6.600;2023-02-04T13:23:50;4.50;;;1.70;;
59770;SDS011;45649;53.014;6.600;2023-02-04T13:26:16;3.13;;;1.50;;
59770;SDS011;45649;53.014;6.600;2023-02-04T13:28:42;3.53;;;1.70;;
59770;SDS011;45649;53.014;6.600;2023-02-04T13:31:08;3.00;;;1.43;;
59770;SDS011;45649;53.014;6.600;2023-02-04T13:33:34;4.87;;;1.97;;
59770;SDS011;45649;53.014;6.600;2023-02-04T13:36:00;3.10;;;1.50;;
59770;SDS011;45649;53.014;6.600;2023-02-04T13:38:26;3.03;;;1.60;;
59770;SDS011;45649;53.014;6.600;2023-02-04T13:40:52;2.53;;;1.53;;
59770;SDS011;45649;53.014;6.600;2023-02-04T13:43:18;2.80;;;1.50;;
59770;SDS011;45649;53.014;6.600;2023-02-04T13:45:44;2.73;;;1.60;;
59770;SDS011;45649;53.014;6.600;2023-02-04T13:48:13;2.93;;;1.60;;
59770;SDS011;45649;53.014;6.600;2023-02-04T13:50:39;3.00;;;1.73;;
59770;SDS011;45649;53.014;6.600;2023-02-04T13:53:05;3.30;;;1.60;;
59770;SDS011;45649;53.014;6.600;2023-02-04T13:55:32;2.97;;;1.70;;
59770;SDS011;45649;53.014;6.600;2023-02-04T13:57:58;3.20;;;1.63;;
59770;SDS011;45649;53.014;6.600;2023-02-04T14:00:24;2.73;;;1.70;;
59770;SDS011;45649;53.014;6.600;2023-02-04T14:02:50;4.17;;;1.40;;
59770;SDS011;45649;53.014;6.600;2023-02-04T14:05:16;4.23;;;1.50;;
59770;SDS011;45649;53.014;6.600;2023-02-04T14:07:42;4.57;;;1.50;;
59770;SDS011;45649;53.014;6.600;2023-02-04T14:10:08;2.03;;;1.50;;
59770;SDS011;45649;53.014;6.600;2023-02-04T14:12:34;2.33;;;1.50;;
59770;SDS011;45649;53.014;6.600;2023-02-04T14:15:00;2.47;;;1.53;;
59770;SDS011;45649;53.014;6.600;2023-02-04T14:17:27;1.97;;;1.50;;
59770;SDS011;45649;53.014;6.600;2023-02-04T14:19:53;4.30;;;1.80;;
59770;SDS011;45649;53.014;6.600;2023-02-04T14:22:19;3.30;;;1.80;;
59770;SDS011;45649;53.014;6.600;2023-02-04T14:24:45;3.90;;;1.87;;
59770;SDS011;45649;53.014;6.600;2023-02-04T14:27:11;2.17;;;1.70;;
59770;SDS011;45649;53.014;6.600;2023-02-04T14:29:37;2.70;;;1.50;;
59770;SDS011;45649;53.014;6.600;2023-02-04T14:32:03;3.87;;;1.63;;
59770;SDS011;45649;53.014;6.600;2023-02-04T14:34:29;1.90;;;1.43;;
59770;SDS011;45649;53.014;6.600;2023-02-04T14:36:55;2.40;;;1.33;;
59770;SDS011;45649;53.014;6.600;2023-02-04T14:39:21;1.67;;;1.57;;
59770;SDS011;45649;53.014;6.600;2023-02-04T14:41:48;4.13;;;1.60;;
59770;SDS011;45649;53.014;6.600;2023-02-04T14:44:14;3.23;;;1.60;;
59770;SDS011;45649;53.014;6.600;2023-02-04T14:46:45;1.93;;;1.30;;
59770;SDS011;45649;53.014;6.600;2023-02-04T14:49:15;1.90;;;1.40;;
59770;SDS011;45649;53.014;6.600;2023-02-04T14:51:41;2.53;;;1.90;;
59770;SDS011;45649;53.014;6.600;2023-02-04T14:54:07;2.30;;;1.50;;